Terminal Aerodrome Forecast
Issued by NWS Cleveland, OH

Home | Current Version | Previous Version | Graphics & Text | Print | Product List | Glossary On
Versions: 1 2 3 4 5 6 7 8 9 10 11 12 13 14 15 16 17
000
FTUS41 KCLE 200905 AAA
TAFYNG
TAF AMD
KYNG 200905Z 2009/2106 10003KT P6SM OVC100
      TEMPO 2010/2014 3SM BR BKN020
     FM201500 VRB03KT P6SM BKN050
     FM202000 05006KT P6SM VCTS BKN035CB
     FM202300 05006KT P6SM SCT035 BKN080=

USA.gov is the U.S. government's official web portal to all federal, state and local government web resources and services.